Aérodrome :
LOGIN :

S'inscrire | Disclaimer

   EN    FR    IT 

 










Légende :    VFR   VFR Marginal   IFR   IFR Intensif   IFR Très Intensif
Visi : 
Plafond : 
>= 8 km
>= 3000ft
5 à 8 km
1000 à 3000 ft
1500m à 5 km
500 à 1000 ft
800 à 1500m
200 à 500 ft
< 800m
< 200 ft
Symboles :   Orages  Brouillard  Fortes neiges  Fortes précipitations  Vent > 20 kt
SIGMETs :   Divers  Orages  Givrage  Turbulence  Onde Orograph.  Cendres Volcan.







- Altitude de l'aérodrome : 119 ft
- Code IATA : WAT


EIWF - Waterford

DERNIER METAR :
  • 161930Z 34012KT 310V020 9999 SCT016 04/02 Q1004 R03/1/////

METARs EXPIRÉS :
  • 161900Z 34010KT 310V020 9999 BKN016 05/03 Q1003 R03/1/////
  • 161830Z 34011KT 9999 BKN018 04/03 Q1003 R03/1/////
  • 161800Z 35009KT 9999 SCT024 04/03 Q1002 R03/1/////
  • 161730Z 36004KT 320V040 9999 VCSH BKN015 05/04 Q1002 RERA R03/1/////
  • 161700Z 28005KT 250V310 9999 SHRA FEW031 BKN035 05/03 Q1001 R21/1/////

TAF TAF EIWF
Valide du 16 à 18h jusqu'au 17 à 03h UTC


161700Z 1618/1703 28013KT 9999 SCT020 SCT040
BECMG 1618/1621 31013KT
TEMPO 1618/1621 31015G25KT
PROB30
TEMPO 1618/1621 -SHRA FEW018CB
BECMG 1701/1703 35017G28KT
ATIS : +353 51 877 000
Pas de NOTAMs connus pour ce terrain.



MET'MAP, la Météo Aéronautique d'un coup d'oeil ! - Copyright ORBIFLY Décembre 2007 - Disclaimer

ORBIFLY MET'MAP TEAM :

Programmation & Développement : Alexandra Zaïnal
Conception & Développement : Baudouin d'Aumeries
Co-Programmation & Développement : Marc-Olivier Méhu
Soutien technique & logistique : Manuel Goepfert

Contact : metmap@orbifly.com




SOURCES & CREDITS :

   NOAA